Time;durP1;ratioP1;P1;durP2;ratioP2;P2;SDS_P1;SDS_P2;PMS_P1;PMS_P2;Temp;Humidity;BMP_temperature;BMP_pressure;BME280_temperature;BME280_humidity;BME280_pressure;Samples;Min_cycle;Max_cycle;Signal;HPM_P1;HPM_P2
2023/07/27 00:01:14;;;;;;;2.33;1.47;;;14.70;99.90;;;13.53;84.95;99781.59;10293498;28;97237;-89
2023/07/27 00:06:18;;;;;;;2.73;1.07;;;14.70;99.90;;;13.51;84.38;99791.63;10296804;28;96512;-87
2023/07/27 00:11:21;;;;;;;1.53;1.20;;;14.70;99.90;;;13.53;83.50;99784.25;10295342;28;96551;-89
2023/07/27 00:16:26;;;;;;;2.57;0.97;;;14.70;99.90;;;13.55;82.74;99781.38;10292127;28;97000;-90
2023/07/27 00:21:30;;;;;;;2.05;0.80;;;14.70;99.90;;;13.58;81.74;99787.16;10274859;28;96533;-89
2023/07/27 00:26:34;;;;;;;1.53;0.80;;;14.70;99.60;;;13.57;80.89;99785.50;10294332;28;96440;-89
2023/07/27 00:31:38;;;;;;;1.70;0.90;;;14.80;99.20;;;13.62;80.11;99798.28;10274377;28;96555;-89
2023/07/27 00:36:42;;;;;;;2.53;0.70;;;14.80;99.00;;;13.63;80.25;99790.06;10273947;28;97037;-86
2023/07/27 00:41:46;;;;;;;3.53;0.97;;;14.80;98.90;;;13.60;80.13;99782.44;10273182;28;96505;-90
2023/07/27 00:46:51;;;;;;;2.57;1.00;;;14.80;98.90;;;13.55;80.92;99787.53;10273519;28;96686;-89
2023/07/27 00:51:55;;;;;;;2.17;1.07;;;14.70;99.10;;;13.46;82.31;99788.72;10290807;28;97374;-89
2023/07/27 00:56:59;;;;;;;3.43;1.20;;;14.60;99.60;;;13.37;83.17;99792.56;10257123;28;96504;-91
2023/07/27 01:02:03;;;;;;;2.10;1.03;;;14.50;99.90;;;13.30;84.16;99797.03;10263129;28;96594;-89
2023/07/27 01:07:08;;;;;;;2.03;1.00;;;14.50;99.90;;;13.22;85.11;99805.19;10273308;28;96756;-87
2023/07/27 01:12:34;;;;;;;2.77;1.30;;;14.40;99.90;;;13.15;85.61;99801.63;10273837;28;96549;-89
2023/07/27 01:17:59;;;;;;;3.10;1.17;;;14.40;99.90;;;13.07;86.30;99798.09;10274078;28;96730;-89
2023/07/27 01:24:06;;;;;;;1.50;1.17;;;14.30;99.90;;;13.03;86.60;99806.69;10274430;28;96586;-89
2023/07/27 01:29:42;;;;;;;2.17;1.30;;;14.20;99.90;;;12.97;86.54;99797.59;10271365;28;96558;-87
2023/07/27 01:34:51;;;;;;;1.30;0.90;;;14.10;99.90;;;12.93;86.27;99788.31;10290558;28;96507;-88
2023/07/27 01:39:57;;;;;;;2.60;1.07;;;14.10;99.90;;;13.01;85.35;99790.03;10272446;28;96755;-88
2023/07/27 01:45:04;;;;;;;1.47;0.93;;;14.20;99.90;;;13.04;85.17;99794.97;10272597;28;97500;-88
2023/07/27 01:50:09;;;;;;;2.03;1.00;;;14.20;99.90;;;13.00;85.34;99797.19;10273847;28;96840;-89
2023/07/27 01:55:16;;;;;;;2.10;1.20;;;14.20;99.90;;;12.94;85.63;99783.81;10291094;28;96455;-89
2023/07/27 02:00:20;;;;;;;2.33;1.00;;;14.10;99.90;;;12.92;85.87;99805.34;10271995;28;96735;-87
2023/07/27 02:05:25;;;;;;;1.43;1.20;;;14.10;99.90;;;12.87;85.73;99789.09;10288878;28;96875;-87
2023/07/27 02:10:32;;;;;;;1.50;0.97;;;14.10;99.90;;;12.83;86.08;99787.81;10272040;28;96616;-87
2023/07/27 02:15:44;;;;;;;1.10;0.90;;;14.00;99.90;;;12.79;86.16;99787.41;10252153;28;98939;-87
2023/07/27 02:20:50;;;;;;;2.03;1.10;;;14.00;99.90;;;12.75;86.57;99785.31;10256295;28;98541;-85
2023/07/27 02:25:54;;;;;;;2.23;1.10;;;13.90;99.90;;;12.73;86.79;99787.34;10271242;28;98802;-88
2023/07/27 02:30:57;;;;;;;1.40;1.00;;;13.90;99.90;;;12.73;86.68;99792.69;10267472;28;96624;-87
2023/07/27 02:36:01;;;;;;;1.77;1.20;;;13.90;99.90;;;12.75;86.33;99798.63;10291064;28;96397;-89
2023/07/27 02:41:05;;;;;;;2.33;1.30;;;13.90;99.90;;;12.73;86.73;99808.69;10272206;28;96570;-89
2023/07/27 02:46:08;;;;;;;1.60;1.10;;;13.90;99.90;;;12.71;86.89;99810.69;10276760;28;96536;-90
2023/07/27 02:51:12;;;;;;;1.50;1.17;;;13.90;99.90;;;12.65;86.84;99806.94;10292003;28;96414;-89
2023/07/27 02:56:17;;;;;;;1.80;1.00;;;13.80;99.90;;;12.61;86.91;99804.88;10259544;28;97051;-90
2023/07/27 03:01:20;;;;;;;2.43;1.13;;;13.80;99.90;;;12.58;87.29;99812.22;10270754;28;97454;-90
2023/07/27 03:06:24;;;;;;;3.13;1.30;;;13.80;99.90;;;12.56;87.42;99813.44;10296429;28;96619;-92
2023/07/27 03:11:28;;;;;;;1.80;1.20;;;13.70;99.90;;;12.50;87.77;99817.69;10295525;28;96588;-89
2023/07/27 03:16:32;;;;;;;1.77;1.03;;;13.70;99.90;;;12.49;87.90;99829.34;10273659;28;98349;-89
2023/07/27 03:21:36;;;;;;;1.90;1.43;;;13.70;99.90;;;12.47;87.84;99833.22;10266108;28;96444;-91
2023/07/27 03:26:40;;;;;;;1.73;1.20;;;13.70;99.90;;;12.49;87.62;99845.34;10272123;28;96677;-90
2023/07/27 03:31:44;;;;;;;1.70;1.17;;;13.70;99.90;;;12.52;87.61;99844.13;10291122;28;96592;-89
2023/07/27 03:36:47;;;;;;;1.10;0.80;;;13.70;99.90;;;12.56;87.44;99846.25;10277767;28;96557;-88
2023/07/27 03:41:50;;;;;;;1.60;1.10;;;13.80;99.90;;;12.62;87.09;99860.66;10254851;28;98491;-87
2023/07/27 03:46:54;;;;;;;2.07;1.10;;;13.90;99.90;;;12.63;86.75;99856.16;10268982;28;97986;-89
2023/07/27 03:51:58;;;;;;;3.63;1.30;;;13.90;99.90;;;12.71;86.64;99872.81;10258763;28;97314;-86
2023/07/27 03:57:01;;;;;;;2.77;1.23;;;13.90;99.90;;;12.79;86.40;99869.22;10289628;28;98224;-87
2023/07/27 04:02:05;;;;;;;2.27;1.00;;;14.00;99.90;;;12.85;85.60;99877.31;10294943;28;97317;-88
2023/07/27 04:07:09;;;;;;;1.93;1.20;;;14.10;99.90;;;12.93;85.92;99879.00;10289630;28;98879;-88
2023/07/27 04:12:13;;;;;;;1.50;0.90;;;14.20;99.90;;;13.04;85.54;99881.16;10258396;28;97687;-87
2023/07/27 04:17:16;;;;;;;1.90;1.17;;;14.30;99.90;;;13.17;85.45;99901.78;10275425;28;96768;-87
2023/07/27 04:22:20;;;;;;;3.83;1.20;;;14.40;99.90;;;13.28;84.79;99911.16;10272857;28;96893;-85
2023/07/27 04:27:23;;;;;;;2.27;1.30;;;14.50;99.90;;;13.38;83.91;99919.69;10281737;28;98806;-84
2023/07/27 04:32:27;;;;;;;1.57;1.10;;;14.60;99.90;;;13.44;83.73;99916.22;10273158;28;98391;-84
2023/07/27 04:37:34;;;;;;;2.30;1.23;;;14.70;99.90;;;13.51;83.44;99922.44;10261578;28;96491;-84
2023/07/27 04:42:41;;;;;;;2.50;1.43;;;14.80;99.90;;;13.56;82.17;99920.03;10271699;28;97571;-84
2023/07/27 04:47:45;;;;;;;1.33;1.05;;;14.80;99.90;;;13.62;82.26;99915.75;10273480;28;97560;-84
2023/07/27 04:52:48;;;;;;;1.92;1.10;;;14.80;99.90;;;13.71;82.20;99929.78;10274241;28;98512;-84
2023/07/27 04:57:52;;;;;;;1.20;0.90;;;14.90;99.90;;;13.80;81.25;99925.94;10272206;28;98867;-84
2023/07/27 05:02:57;;;;;;;3.03;1.00;;;15.00;99.90;;;13.95;80.55;99937.31;10262765;28;98037;-85
2023/07/27 05:08:01;;;;;;;1.63;0.90;;;15.10;99.70;;;14.10;80.07;99940.72;10269606;28;98808;-85
2023/07/27 05:13:05;;;;;;;1.52;1.08;;;15.30;99.70;;;14.26;78.96;99944.06;10298481;28;97130;-85
2023/07/27 05:18:08;;;;;;;1.73;1.10;;;15.40;99.30;;;14.41;79.08;99956.28;10286112;28;98475;-84
2023/07/27 05:23:12;;;;;;;2.05;0.80;;;15.60;99.20;;;14.57;78.55;99957.81;10288906;28;97413;-85
2023/07/27 05:28:17;;;;;;;2.57;0.87;;;15.80;99.00;;;14.70;77.30;99970.44;10285706;28;96930;-84
2023/07/27 05:33:21;;;;;;;1.38;1.05;;;15.90;98.70;;;14.78;76.64;99964.91;10287307;28;97496;-85
2023/07/27 05:38:24;;;;;;;1.33;0.90;;;16.00;98.40;;;14.88;76.91;99972.56;10273425;28;96696;-86
2023/07/27 05:43:28;;;;;;;1.65;1.00;;;16.10;98.40;;;14.99;76.40;99972.78;10260719;28;96936;-85
2023/07/27 05:48:33;;;;;;;1.23;0.80;;;16.10;98.20;;;15.13;76.59;99968.28;10291332;28;97221;-85
2023/07/27 05:53:37;;;;;;;3.83;1.00;;;16.30;98.20;;;15.35;76.24;99970.78;10277198;28;96529;-85
2023/07/27 05:58:40;;;;;;;1.65;0.90;;;16.50;98.00;;;15.49;73.17;99973.28;10284701;28;96592;-84
2023/07/27 06:03:44;;;;;;;1.17;0.88;;;16.70;97.30;;;15.66;72.78;99971.06;10290512;28;97419;-84
2023/07/27 06:09:09;;;;;;;1.98;1.38;;;16.80;96.90;;;15.87;71.41;99963.81;10284855;28;97790;-84
2023/07/27 06:14:12;;;;;;;2.08;0.85;;;17.00;96.40;;;16.04;71.69;99967.72;10286862;28;97790;-84
2023/07/27 06:19:16;;;;;;;2.40;0.85;;;17.20;96.40;;;16.21;71.71;99974.28;10269899;28;97062;-84
2023/07/27 06:24:20;;;;;;;1.45;0.77;;;17.40;96.30;;;16.28;69.61;99977.75;10272464;28;97612;-85
2023/07/27 06:29:23;;;;;;;1.63;0.70;;;17.50;95.70;;;16.33;70.16;99969.09;10289655;28;96500;-86
2023/07/27 06:34:27;;;;;;;1.45;0.82;;;17.50;95.60;;;16.47;70.27;99965.31;10283934;28;96628;-83
2023/07/27 06:39:30;;;;;;;1.38;0.85;;;17.60;95.50;;;16.65;69.17;99963.81;10279644;28;96870;-84
2023/07/27 06:44:34;;;;;;;1.45;0.98;;;17.80;95.20;;;16.80;69.32;99973.28;10279099;28;96487;-84
2023/07/27 06:49:37;;;;;;;1.63;1.00;;;17.90;95.10;;;16.85;68.40;99968.09;10252979;28;98310;-85
2023/07/27 06:54:41;;;;;;;1.35;0.93;;;18.00;94.80;;;16.96;69.14;99974.63;10277917;28;98767;-84
2023/07/27 06:59:45;;;;;;;1.60;1.00;;;18.10;94.90;;;17.06;68.24;99974.16;10272078;28;96978;-87
2023/07/27 07:04:49;;;;;;;1.83;0.90;;;18.20;94.80;;;17.23;66.07;99974.47;10281614;28;96825;-87
2023/07/27 07:09:52;;;;;;;1.10;0.80;;;18.40;94.00;;;17.39;66.92;99977.47;10287776;28;97492;-93
2023/07/27 07:14:56;;;;;;;1.67;0.85;;;18.50;93.90;;;17.58;63.38;99966.78;10229242;28;97415;-88
2023/07/27 07:20:00;;;;;;;2.20;1.00;;;18.70;93.10;;;17.75;64.58;99972.44;10279376;28;96581;-89
2023/07/27 07:25:04;;;;;;;3.88;0.98;;;18.90;93.10;;;17.91;65.05;99980.78;10294301;28;96410;-88
2023/07/27 07:30:08;;;;;;;1.70;0.82;;;19.00;93.10;;;18.03;63.63;99980.88;10278821;28;97876;-87
2023/07/27 07:35:12;;;;;;;1.60;0.93;;;19.20;92.60;;;18.07;64.17;99984.78;10262963;28;96532;-87
2023/07/27 07:40:17;;;;;;;1.60;0.90;;;19.20;92.60;;;18.18;63.53;99978.66;10276281;28;97129;-88
2023/07/27 07:45:21;;;;;;;2.47;1.00;;;19.30;92.30;;;18.27;62.11;99987.25;10279635;28;96843;-88
2023/07/27 07:50:25;;;;;;;3.20;0.90;;;19.40;91.80;;;18.41;61.25;99978.00;10277560;28;96393;-86
2023/07/27 07:55:28;;;;;;;2.13;1.20;;;19.60;91.40;;;18.58;61.99;99977.38;10277109;28;96692;-89
2023/07/27 08:00:32;;;;;;;3.25;1.20;;;19.80;91.60;;;18.91;62.55;99982.38;10273790;28;97902;-89
2023/07/27 08:05:40;;;;;;;1.80;0.82;;;20.10;91.80;;;19.21;60.78;99972.44;10291518;28;96778;-88
2023/07/27 08:10:44;;;;;;;1.80;0.90;;;20.40;91.20;;;19.31;59.14;99965.66;10260690;28;96534;-88
2023/07/27 08:15:53;;;;;;;1.20;0.80;;;20.40;90.50;;;19.34;57.38;99957.94;10259223;28;96487;-88
2023/07/27 08:21:04;;;;;;;2.90;1.10;;;20.50;89.20;;;19.35;57.06;99956.06;10277723;28;96400;-88
2023/07/27 08:26:09;;;;;;;4.15;0.98;;;20.50;88.50;;;19.38;56.76;99956.44;10276827;28;97339;-89
2023/07/27 08:31:13;;;;;;;2.63;1.08;;;20.50;87.80;;;19.34;57.42;99955.25;10292201;28;96803;-90
2023/07/27 08:36:17;;;;;;;1.30;1.00;;;20.50;87.60;;;19.40;57.52;99953.50;10274486;28;98684;-87
2023/07/27 08:41:21;;;;;;;1.85;1.00;;;20.60;88.00;;;19.62;56.47;99951.94;10275937;28;96514;-87
2023/07/27 08:46:28;;;;;;;1.58;0.93;;;20.80;86.60;;;19.74;55.75;99943.84;10291758;28;96602;-87
2023/07/27 08:51:36;;;;;;;0.98;0.80;;;20.90;86.00;;;19.65;51.79;99943.34;10260274;28;96533;-87
2023/07/27 08:56:40;;;;;;;2.08;0.93;;;20.80;81.90;;;19.66;52.58;99949.56;10259373;28;98296;-88
2023/07/27 09:01:44;;;;;;;2.15;0.88;;;20.80;81.60;;;19.80;53.23;99950.19;10275818;28;96363;-88
2023/07/27 09:06:50;;;;;;;3.42;1.58;;;20.90;81.70;;;19.81;49.47;99947.25;10274307;28;96932;-87
2023/07/27 09:11:54;;;;;;;1.50;0.90;;;21.00;79.30;;;19.94;50.99;99941.59;10275841;28;98337;-89
2023/07/27 09:16:58;;;;;;;2.05;1.00;;;21.00;79.30;;;20.17;51.04;99943.47;10275146;28;96570;-88
2023/07/27 09:22:02;;;;;;;1.83;1.08;;;21.20;79.20;;;20.44;49.71;99949.16;10277342;28;96486;-88
2023/07/27 09:27:13;;;;;;;1.80;0.80;;;21.50;78.10;;;20.57;47.83;99940.84;10278006;28;96477;-89
2023/07/27 09:32:17;;;;;;;1.67;1.00;;;21.70;75.90;;;20.60;48.06;99946.81;10275964;28;96459;-90
2023/07/27 09:37:22;;;;;;;3.03;1.00;;;21.70;75.00;;;20.66;48.66;99940.44;10274415;28;96615;-88
2023/07/27 09:42:25;;;;;;;1.55;0.90;;;21.70;75.40;;;20.79;47.18;99951.78;10261973;28;96477;-87
2023/07/27 09:47:31;;;;;;;2.95;1.00;;;21.90;75.00;;;20.93;47.38;99940.69;10289480;28;96596;-88
2023/07/27 09:52:38;;;;;;;1.30;0.90;;;22.00;73.60;;;21.06;47.12;99935.81;10283691;28;97567;-89
2023/07/27 09:57:43;;;;;;;2.13;1.08;;;22.10;73.10;;;21.28;46.20;99945.91;10293670;28;96601;-88
2023/07/27 10:02:47;;;;;;;1.85;0.82;;;22.40;72.50;;;21.41;46.02;99923.16;10269677;28;97006;-86
2023/07/27 10:07:50;;;;;;;2.60;1.10;;;22.50;72.20;;;21.56;47.91;99921.53;10277330;28;97437;-90
2023/07/27 10:12:58;;;;;;;1.45;0.88;;;22.60;73.30;;;21.49;47.69;99906.56;10274228;28;97543;-95
2023/07/27 10:18:04;;;;;;;1.75;1.05;;;22.60;73.30;;;21.27;45.32;99904.53;10281729;28;97075;-91
2023/07/27 10:23:10;;;;;;;1.63;1.02;;;22.40;71.30;;;21.20;46.29;99912.00;10280140;28;99105;-85
2023/07/27 10:28:31;;;;;;;1.70;1.10;;;22.20;71.50;;;21.38;47.81;99906.38;10294007;28;96556;-87
2023/07/27 10:33:35;;;;;;;1.25;0.77;;;22.40;72.80;;;21.62;46.05;99895.41;10272408;28;96957;-85
2023/07/27 10:38:38;;;;;;;1.58;0.90;;;22.70;71.20;;;21.87;45.84;99886.81;10273697;28;98584;-87
2023/07/27 10:44:07;;;;;;;1.45;0.80;;;22.90;70.60;;;22.12;43.92;99892.59;10277392;28;97222;-90
2023/07/27 10:49:19;;;;;;;2.15;0.90;;;23.20;67.20;;;22.24;43.47;99872.72;10291659;28;97588;-94
2023/07/27 10:54:35;;;;;;;1.30;0.70;;;23.40;68.10;;;22.48;44.04;99878.69;10283222;28;96904;-88
2023/07/27 10:59:43;;;;;;;1.17;0.98;;;23.50;68.00;;;22.68;42.98;99863.50;10280857;28;97477;-89
2023/07/27 11:04:56;;;;;;;1.58;0.90;;;23.70;66.90;;;22.84;42.31;99861.72;10291869;28;97452;-87
2023/07/27 11:10:12;;;;;;;1.50;0.90;;;23.90;66.40;;;22.91;40.38;99875.09;10277661;28;96532;-87
2023/07/27 11:15:22;;;;;;;1.73;0.93;;;24.00;62.90;;;22.91;41.91;99862.38;10270182;28;97481;-86
2023/07/27 11:20:28;;;;;;;1.52;0.88;;;24.00;64.80;;;22.91;40.63;99848.00;10278885;28;96573;-85
2023/07/27 11:25:33;;;;;;;1.10;0.73;;;24.00;63.70;;;22.99;41.65;99846.72;10287373;28;97123;-86
2023/07/27 11:30:37;;;;;;;2.95;1.00;;;24.10;64.30;;;23.12;40.88;99854.44;10239148;28;97440;-86
2023/07/27 11:35:46;;;;;;;1.98;0.82;;;24.10;63.30;;;23.30;39.33;99842.38;10256966;28;96578;-86
2023/07/27 11:40:49;;;;;;;2.17;0.98;;;24.40;62.30;;;23.31;39.78;99842.09;10277726;28;96735;-85
2023/07/27 11:45:58;;;;;;;2.05;0.90;;;24.40;62.00;;;23.45;39.55;99831.59;10294292;28;96498;-85
2023/07/27 11:51:02;;;;;;;1.50;0.90;;;24.50;61.50;;;23.60;39.28;99826.28;10281740;28;96575;-86
2023/07/27 11:56:09;;;;;;;3.28;1.10;;;24.70;60.80;;;23.75;38.26;99814.75;10292063;28;96531;-86
2023/07/27 12:01:13;;;;;;;2.90;0.90;;;24.80;60.20;;;23.54;37.56;99819.19;10294667;28;96468;-85
2023/07/27 12:06:25;;;;;;;1.25;0.77;;;24.70;59.00;;;23.43;38.91;99801.22;10292736;28;96686;-86
2023/07/27 12:11:29;;;;;;;1.02;0.70;;;24.50;60.20;;;23.58;37.83;99811.38;10276215;28;96555;-87
2023/07/27 12:16:45;;;;;;;1.33;0.90;;;24.70;59.20;;;23.83;37.53;99799.84;10273947;28;98045;-85
2023/07/27 12:21:52;;;;;;;1.13;0.70;;;24.90;58.80;;;24.13;37.94;99805.41;10276101;28;97249;-86
2023/07/27 12:26:58;;;;;;;3.30;0.80;;;25.20;58.90;;;24.37;36.93;99799.53;10292696;28;96857;-86
2023/07/27 12:32:06;;;;;;;1.23;0.65;;;25.40;58.00;;;24.53;35.59;99793.84;10262260;28;96609;-85
2023/07/27 12:37:12;;;;;;;2.80;0.93;;;25.60;57.00;;;24.66;35.85;99791.69;10272573;28;96758;-86
2023/07/27 12:42:20;;;;;;;1.42;0.70;;;25.80;56.80;;;24.95;36.35;99795.50;10275732;28;96613;-85
2023/07/27 12:47:26;;;;;;;1.17;0.80;;;26.00;57.30;;;25.15;35.60;99788.44;10288912;28;96613;-86
2023/07/27 12:52:30;;;;;;;1.15;0.63;;;26.30;56.20;;;25.10;34.79;99778.41;10274720;28;97308;-86
2023/07/27 12:57:33;;;;;;;1.25;0.80;;;26.30;55.00;;;25.21;35.05;99787.34;10273898;28;96514;-86
2023/07/27 13:02:37;;;;;;;1.15;0.80;;;26.50;55.10;;;25.35;35.22;99780.25;10272886;28;96730;-85
2023/07/27 13:07:43;;;;;;;1.40;0.90;;;26.70;55.70;;;25.87;35.31;99773.59;10252187;28;96608;-83
2023/07/27 13:12:48;;;;;;;1.75;0.93;;;27.50;55.00;;;25.92;33.13;99772.75;10273037;28;96638;-87
2023/07/27 13:17:52;;;;;;;1.42;0.70;;;27.80;52.60;;;26.18;32.87;99776.16;10290326;28;97051;-84
2023/07/27 13:22:56;;;;;;;2.22;0.70;;;28.20;52.40;;;26.39;32.75;99769.50;10271657;28;96818;-85
2023/07/27 13:28:00;;;;;;;1.42;0.80;;;28.30;51.30;;;26.56;32.42;99769.94;10273085;28;96710;-84
2023/07/27 13:33:03;;;;;;;0.80;0.70;;;28.30;51.00;;;26.76;32.15;99779.88;10272299;28;96646;-85
2023/07/27 13:38:07;;;;;;;1.10;0.82;;;28.20;50.90;;;26.88;31.16;99777.59;10270316;28;97799;-84
2023/07/27 13:43:11;;;;;;;1.38;0.80;;;28.00;50.40;;;27.00;30.29;99760.03;10291839;28;96620;-86
2023/07/27 13:48:14;;;;;;;2.45;0.52;;;27.90;50.40;;;27.23;31.02;99755.72;10270633;28;96735;-84
2023/07/27 13:53:21;;;;;;;1.20;0.70;;;27.90;50.80;;;27.08;31.13;99762.16;10273864;28;96542;-84
2023/07/27 13:58:24;;;;;;;1.20;0.70;;;27.70;50.60;;;26.92;31.84;99764.19;10270885;28;97030;-82
2023/07/27 14:03:28;;;;;;;1.27;0.80;;;27.50;51.60;;;26.76;30.90;99763.53;10280044;28;98353;-84
2023/07/27 14:08:31;;;;;;;0.90;0.60;;;27.50;50.60;;;26.49;30.93;99772.16;10290135;28;96612;-86
2023/07/27 14:13:35;;;;;;;3.63;0.70;;;27.40;50.20;;;26.01;31.83;99763.72;10287914;28;96526;-83
2023/07/27 14:18:41;;;;;;;1.70;0.77;;;27.00;50.40;;;25.71;32.56;99770.06;10267639;28;96746;-83
2023/07/27 14:23:48;;;;;;;1.85;1.40;;;26.70;51.20;;;25.17;33.24;99765.31;10276982;28;96524;-86
2023/07/27 14:28:51;;;;;;;1.02;0.65;;;26.30;51.20;;;24.94;34.37;99757.72;10273461;28;96465;-86
2023/07/27 14:33:56;;;;;;;1.20;0.82;;;26.00;51.80;;;24.70;34.20;99760.97;10290921;28;98349;-83
2023/07/27 14:39:00;;;;;;;3.00;1.80;;;25.80;52.10;;;24.64;35.57;99755.81;10251350;28;96771;-86
2023/07/27 14:44:07;;;;;;;2.33;0.95;;;25.70;53.70;;;25.10;35.30;99753.94;10255216;28;97159;-85
2023/07/27 14:49:11;;;;;;;2.03;1.15;;;26.40;53.20;;;25.76;34.03;99751.03;10286492;28;96593;-87
2023/07/27 14:54:14;;;;;;;2.20;1.08;;;27.50;51.90;;;26.25;32.85;99736.59;10286411;28;96829;-87
2023/07/27 14:59:18;;;;;;;1.50;0.80;;;28.10;50.40;;;26.77;31.69;99731.63;10285082;28;96642;-85
2023/07/27 15:04:27;;;;;;;1.42;0.60;;;28.80;49.70;;;27.30;31.65;99731.69;10288450;28;96534;-83
2023/07/27 15:09:35;;;;;;;3.65;0.80;;;29.30;49.50;;;27.40;29.92;99743.28;10289379;28;97550;-86
2023/07/27 15:14:39;;;;;;;1.00;0.70;;;29.30;48.20;;;27.42;29.95;99737.53;10261897;28;97870;-88
2023/07/27 15:19:46;;;;;;;0.90;0.80;;;29.20;47.90;;;27.27;29.69;99735.78;10289750;28;96559;-86
2023/07/27 15:24:49;;;;;;;1.73;1.02;;;28.90;48.10;;;27.23;30.77;99736.63;10296001;28;96467;-85
2023/07/27 15:29:55;;;;;;;1.77;0.80;;;28.60;48.90;;;27.69;30.76;99731.50;10280012;28;98833;-87
2023/07/27 15:34:59;;;;;;;0.98;0.80;;;29.10;48.60;;;28.02;29.46;99724.25;10292338;28;98533;-86
2023/07/27 15:40:03;;;;;;;1.42;0.70;;;29.60;47.50;;;28.04;28.14;99727.50;10274458;28;98173;-87
2023/07/27 15:45:08;;;;;;;1.17;0.80;;;29.70;46.10;;;27.41;29.49;99735.94;10275607;28;97314;-88
2023/07/27 15:50:11;;;;;;;1.00;0.60;;;28.80;47.20;;;27.20;29.88;99736.13;10269607;28;96768;-86
2023/07/27 15:55:15;;;;;;;0.98;0.80;;;28.50;47.40;;;26.94;29.71;99727.38;10296503;28;96571;-87
2023/07/27 16:00:19;;;;;;;1.98;0.90;;;28.20;47.30;;;26.32;28.97;99737.09;10293660;28;96562;-89
2023/07/27 16:05:26;;;;;;;2.50;0.70;;;27.60;46.50;;;25.67;30.62;99736.38;10261301;28;96575;-88
2023/07/27 16:10:29;;;;;;;2.00;0.98;;;26.80;47.80;;;25.76;31.36;99731.19;10271662;28;96597;-86
2023/07/27 16:15:33;;;;;;;1.20;0.80;;;26.70;48.80;;;26.01;30.79;99731.03;10274060;28;97824;-89
2023/07/27 16:20:42;;;;;;;3.75;1.00;;;27.00;48.50;;;26.04;30.79;99735.94;10274488;28;97463;-87
2023/07/27 16:25:45;;;;;;;1.77;0.95;;;27.10;48.10;;;25.81;31.00;99731.16;10273599;28;96580;-86
2023/07/27 16:30:50;;;;;;;1.52;1.10;;;26.90;48.00;;;25.70;31.76;99732.25;10288864;28;96811;-87
2023/07/27 16:35:53;;;;;;;2.17;0.90;;;26.70;48.80;;;25.66;31.85;99729.28;10271295;28;97370;-89
2023/07/27 16:40:58;;;;;;;1.48;1.00;;;26.70;49.00;;;25.62;32.01;99728.22;10277374;28;97660;-88
2023/07/27 16:46:35;;;;;;;3.30;0.80;;;26.70;49.10;;;25.58;32.28;99717.06;10278470;28;97292;-90
2023/07/27 16:51:40;;;;;;;1.80;0.95;;;26.60;49.40;;;25.58;32.94;99722.50;10294104;28;96594;-90
2023/07/27 16:56:44;;;;;;;2.30;1.08;;;26.70;49.70;;;25.36;32.93;99720.13;10273040;28;97076;-89
2023/07/27 17:01:47;;;;;;;1.48;0.90;;;26.40;50.30;;;24.91;33.70;99720.22;10277821;28;97519;-88
2023/07/27 17:06:51;;;;;;;1.25;0.80;;;25.90;50.70;;;24.38;34.54;99733.25;10276518;28;96737;-88
2023/07/27 17:11:56;;;;;;;1.95;0.90;;;25.40;51.40;;;23.82;35.54;99738.53;10269138;28;96511;-89
2023/07/27 17:16:59;;;;;;;1.42;1.10;;;24.80;52.20;;;23.39;36.82;99751.31;10273775;28;96628;-88
2023/07/27 17:22:04;;;;;;;3.10;1.00;;;24.40;53.10;;;23.03;37.55;99759.25;10290080;28;96657;-88
2023/07/27 17:27:08;;;;;;;1.15;0.82;;;24.10;53.60;;;22.78;38.19;99753.59;10271974;28;98289;-88
2023/07/27 17:32:13;;;;;;;1.60;0.95;;;23.80;54.10;;;22.54;38.57;99743.09;10273343;28;96574;-88
2023/07/27 17:37:17;;;;;;;1.90;0.85;;;23.60;54.50;;;22.34;39.03;99762.69;10256973;28;97238;-91
2023/07/27 17:42:21;;;;;;;4.18;1.27;;;23.50;54.80;;;22.17;39.31;99754.66;10272544;28;96626;-88
2023/07/27 17:47:25;;;;;;;2.47;1.15;;;23.30;55.30;;;22.02;40.22;99750.97;10276343;28;96652;-89
2023/07/27 17:52:29;;;;;;;3.33;1.10;;;23.20;55.90;;;21.84;40.51;99760.22;10278586;28;96458;-89
2023/07/27 17:57:32;;;;;;;5.35;1.30;;;23.00;56.40;;;21.58;41.20;99757.19;10286808;28;97720;-89
2023/07/27 18:02:36;;;;;;;1.95;1.17;;;22.80;57.00;;;21.35;42.43;99754.69;10292417;28;96511;-90
2023/07/27 18:07:40;;;;;;;4.38;1.48;;;22.60;57.80;;;21.15;43.02;99759.78;10282037;28;96701;-89
2023/07/27 18:12:43;;;;;;;3.70;1.60;;;22.40;58.70;;;20.92;43.83;99764.31;10296229;28;96731;-90
2023/07/27 18:17:47;;;;;;;3.10;1.25;;;22.10;59.30;;;20.70;44.24;99755.31;10244672;28;97128;-89
2023/07/27 18:22:55;;;;;;;3.00;1.05;;;21.90;59.60;;;20.47;45.00;99756.28;10238669;28;96492;-89
2023/07/27 18:27:59;;;;;;;1.50;1.17;;;21.70;60.10;;;20.23;45.65;99763.63;10257073;28;96582;-89
2023/07/27 18:33:03;;;;;;;4.63;1.40;;;21.50;61.10;;;19.94;47.27;99766.31;10303721;28;96783;-88
2023/07/27 18:38:07;;;;;;;2.65;1.25;;;21.20;62.00;;;19.66;47.93;99768.97;10263346;28;96817;-88
2023/07/27 18:43:10;;;;;;;1.95;1.13;;;21.00;63.70;;;19.44;48.49;99777.66;10279108;28;96521;-89
2023/07/27 18:48:14;;;;;;;2.90;1.25;;;20.70;64.10;;;19.23;49.87;99789.03;10296399;28;96555;-89
2023/07/27 18:53:18;;;;;;;3.67;1.00;;;20.40;65.30;;;18.98;50.58;99783.88;10267136;28;96790;-89
2023/07/27 18:58:22;;;;;;;3.22;1.77;;;20.20;66.10;;;18.71;51.89;99783.47;10277579;28;97785;-89
2023/07/27 19:03:26;;;;;;;1.75;1.33;;;19.80;67.10;;;18.45;52.37;99774.72;10277012;28;96601;-88
2023/07/27 19:08:30;;;;;;;4.00;1.38;;;19.50;68.20;;;18.27;53.83;99779.31;10258492;28;96769;-90
2023/07/27 19:13:35;;;;;;;2.33;1.23;;;19.30;69.00;;;18.04;54.31;99778.19;10268870;28;98076;-89
2023/07/27 19:18:39;;;;;;;3.10;1.40;;;19.10;69.60;;;17.87;54.19;99777.16;10258680;28;96611;-91
2023/07/27 19:23:43;;;;;;;2.60;1.27;;;19.00;69.70;;;17.85;54.25;99788.13;10267693;28;97621;-91
2023/07/27 19:28:47;;;;;;;2.42;1.23;;;18.90;69.60;;;17.82;54.58;99779.72;10253135;28;96570;-91
2023/07/27 19:33:51;;;;;;;1.65;1.17;;;18.90;70.00;;;17.69;55.51;99759.13;10257533;28;96674;-91
2023/07/27 19:38:58;;;;;;;2.72;1.58;;;18.80;70.70;;;17.58;56.33;99754.53;10259804;28;97582;-92
2023/07/27 19:44:02;;;;;;;2.67;1.42;;;18.70;71.30;;;17.51;56.87;99776.09;10266006;28;98663;-91
2023/07/27 19:49:05;;;;;;;2.92;1.38;;;18.60;72.00;;;17.40;57.56;99776.84;10250539;28;97247;-91
2023/07/27 19:54:09;;;;;;;3.83;1.63;;;18.50;73.00;;;17.30;58.60;99780.03;10272857;28;96910;-92
2023/07/27 19:59:13;;;;;;;2.40;1.80;;;18.40;73.40;;;17.27;59.12;99772.44;10250584;28;96768;-92
2023/07/27 20:04:17;;;;;;;2.55;1.25;;;18.40;74.00;;;17.19;59.20;99772.69;10289240;28;97566;-92
2023/07/27 20:09:20;;;;;;;3.95;1.48;;;18.30;74.20;;;17.07;60.60;99764.53;10259689;28;97953;-91
2023/07/27 20:14:25;;;;;;;2.78;1.58;;;18.20;75.00;;;16.89;61.40;99764.50;10276128;28;96635;-92
2023/07/27 20:19:38;;;;;;;3.20;1.90;;;18.00;75.70;;;16.81;62.71;99770.16;10271039;28;96650;-92
2023/07/27 20:24:42;;;;;;;3.15;1.30;;;17.90;76.30;;;16.68;62.76;99762.19;10272501;28;96558;-92
2023/07/27 20:29:46;;;;;;;3.80;1.65;;;17.80;76.70;;;16.58;63.49;99773.38;10257616;28;97761;-92
2023/07/27 20:34:49;;;;;;;3.30;1.85;;;17.70;77.60;;;16.54;63.49;99764.13;10266978;28;97501;-91
2023/07/27 20:39:53;;;;;;;3.30;1.70;;;17.60;78.00;;;16.47;63.96;99766.03;10288947;28;98349;-94
2023/07/27 20:44:57;;;;;;;3.83;1.70;;;17.50;78.50;;;16.41;65.39;99780.31;10270994;28;97281;-87
2023/07/27 20:50:02;;;;;;;1.80;1.38;;;17.50;79.30;;;16.29;66.21;99772.13;10282757;28;98226;-87
2023/07/27 20:55:06;;;;;;;4.05;1.70;;;17.40;79.80;;;16.22;66.72;99764.13;10269812;28;96654;-86
2023/07/27 21:00:11;;;;;;;3.05;1.65;;;17.30;80.20;;;16.19;67.32;99764.56;10268552;28;96936;-86
2023/07/27 21:05:15;;;;;;;5.22;1.30;;;17.30;80.80;;;16.15;67.96;99762.53;10276789;28;98631;-86
2023/07/27 21:10:19;;;;;;;2.03;1.45;;;17.20;81.20;;;16.04;68.06;99754.13;10285862;28;96647;-86